Time;durP1;ratioP1;P1;durP2;ratioP2;P2;SDS_P1;SDS_P2;PMS_P1;PMS_P2;Temp;Humidity;BMP_temperature;BMP_pressure;BME280_temperature;BME280_humidity;BME280_pressure;Samples;Min_cycle;Max_cycle;Signal;HPM_P1;HPM_P2
2021/03/04 00:00:40;;;;;;;;;;;21.90;99.90;;;;;;4971122;28;20064;-81
2021/03/04 00:03:10;;;;;;;;;;;22.00;99.90;;;;;;4978969;28;19914;-81
2021/03/04 00:05:40;;;;;;;;;;;22.10;99.70;;;;;;4972257;28;20534;-81
2021/03/04 00:08:07;;;;;;;;;;;22.10;99.50;;;;;;4956236;28;19910;-80
2021/03/04 00:10:34;;;;;;;;;;;22.10;99.50;;;;;;4982079;28;20017;-81
2021/03/04 00:13:00;;;;;;;;;;;22.00;98.50;;;;;;4956968;28;20293;-80
2021/03/04 00:15:30;;;;;;;;;;;22.00;98.10;;;;;;4979421;28;19913;-79
2021/03/04 00:18:00;;;;;;;;;;;22.00;98.60;;;;;;5000086;28;19964;-79
2021/03/04 00:20:31;;;;;;;;;;;21.90;98.70;;;;;;4980045;28;19933;-79
2021/03/04 00:22:58;;;;;;;;;;;22.00;99.40;;;;;;5001192;28;19914;-79
2021/03/04 00:25:29;;;;;;;;;;;22.00;99.60;;;;;;5004479;28;19936;-82
2021/03/04 00:27:57;;;;;;;;;;;22.10;99.80;;;;;;4990843;28;19929;-81
2021/03/04 00:30:25;;;;;;;;;;;22.30;99.10;;;;;;4974298;28;19918;-78
2021/03/04 00:32:53;;;;;;;;;;;22.50;98.60;;;;;;4985599;28;20016;-78
2021/03/04 00:35:19;;;;;;;;;;;22.60;98.30;;;;;;4973550;28;19929;-78
2021/03/04 00:37:46;;;;;;;;;;;22.60;97.80;;;;;;4985161;28;19972;-79
2021/03/04 00:40:14;;;;;;;;;;;22.60;98.40;;;;;;4994180;28;19967;-82
2021/03/04 00:42:41;;;;;;;;;;;22.60;97.40;;;;;;4978066;28;19914;-86
2021/03/04 00:45:08;;;;;;;;;;;22.60;97.50;;;;;;4988636;28;19947;-84
2021/03/04 00:47:35;;;;;;;;;;;22.70;97.20;;;;;;4983591;28;19918;-79
2021/03/04 00:50:03;;;;;;;;;;;22.80;97.20;;;;;;4976205;28;20018;-79
2021/03/04 00:52:30;;;;;;;;;;;22.90;96.90;;;;;;4974290;28;19918;-80
2021/03/04 00:54:57;;;;;;;;;;;22.80;96.20;;;;;;4982090;28;19976;-85
2021/03/04 00:57:23;;;;;;;;;;;22.80;97.00;;;;;;4980109;28;19921;-80
2021/03/04 00:59:50;;;;;;;;;;;22.80;97.00;;;;;;4973265;28;19957;-79
2021/03/04 01:02:17;;;;;;;;;;;22.80;97.30;;;;;;4995265;28;19914;-78
2021/03/04 01:04:44;;;;;;;;;;;23.00;96.40;;;;;;4970351;28;19922;-79
2021/03/04 01:07:11;;;;;;;;;;;23.20;96.10;;;;;;4992883;28;19917;-81
2021/03/04 01:09:38;;;;;;;;;;;23.30;96.10;;;;;;4974995;28;19913;-80
2021/03/04 01:12:05;;;;;;;;;;;23.50;95.00;;;;;;4974814;28;19958;-80
2021/03/04 01:14:35;;;;;;;;;;;23.80;95.20;;;;;;4990475;28;19956;-80
2021/03/04 01:17:02;;;;;;;;;;;24.60;94.30;;;;;;4973047;28;19933;-87
2021/03/04 01:19:28;;;;;;;;;;;25.10;93.60;;;;;;4961786;28;19965;-85
2021/03/04 01:21:55;;;;;;;;;;;25.30;92.90;;;;;;4972368;28;20008;-81
2021/03/04 01:24:22;;;;;;;;;;;25.60;92.40;;;;;;4980199;28;20135;-82
2021/03/04 01:26:49;;;;;;;;;;;26.00;92.00;;;;;;4989015;28;19922;-86
2021/03/04 01:29:15;;;;;;;;;;;25.90;90.70;;;;;;4982381;28;19918;-84
2021/03/04 01:31:42;;;;;;;;;;;25.60;91.90;;;;;;4972210;28;19918;-83
2021/03/04 01:34:09;;;;;;;;;;;25.60;91.30;;;;;;4960122;28;20759;-84
2021/03/04 01:36:35;;;;;;;;;;;26.50;90.60;;;;;;4974640;28;19921;-90
2021/03/04 01:39:04;;;;;;;;;;;26.20;90.00;;;;;;4994064;28;19921;-89
2021/03/04 01:41:30;;;;;;;;;;;25.70;90.40;;;;;;4970888;28;19921;-87
2021/03/04 01:43:57;;;;;;;;;;;25.80;91.00;;;;;;4974139;28;19940;-81
2021/03/04 01:46:30;;;;;;;;;;;25.90;89.40;;;;;;4974117;28;19914;-85
2021/03/04 01:48:57;;;;;;;;;;;25.90;89.00;;;;;;4976172;28;20244;-80
2021/03/04 01:51:23;;;;;;;;;;;26.20;87.80;;;;;;4958774;28;19914;-86
2021/03/04 01:53:51;;;;;;;;;;;26.60;88.60;;;;;;4973377;28;19910;-79
2021/03/04 01:56:18;;;;;;;;;;;26.30;89.50;;;;;;4972163;28;19990;-84
2021/03/04 01:58:45;;;;;;;;;;;26.00;88.80;;;;;;4970120;28;20043;-78
2021/03/04 02:01:11;;;;;;;;;;;25.60;91.10;;;;;;4990269;28;19914;-85
2021/03/04 02:03:38;;;;;;;;;;;25.50;90.50;;;;;;4983984;28;19910;-80
2021/03/04 02:06:06;;;;;;;;;;;25.30;91.30;;;;;;4972911;28;19918;-84
2021/03/04 02:08:33;;;;;;;;;;;25.30;91.20;;;;;;4993243;28;19910;-85
2021/03/04 02:11:07;;;;;;;;;;;25.50;89.40;;;;;;4967869;28;19926;-82
2021/03/04 02:13:44;;;;;;;;;;;25.50;88.00;;;;;;4967295;28;19917;-81
2021/03/04 02:16:19;;;;;;;;;;;25.30;90.00;;;;;;4990787;28;19913;-82
2021/03/04 02:18:47;;;;;;;;;;;25.20;89.90;;;;;;4956774;28;19929;-79
2021/03/04 02:21:22;;;;;;;;;;;25.30;90.00;;;;;;4974629;28;20222;-83
2021/03/04 02:24:06;;;;;;;;;;;25.30;87.80;;;;;;4974720;28;19918;-79
2021/03/04 02:26:45;;;;;;;;;;;25.20;88.00;;;;;;4989444;28;19929;-83
2021/03/04 02:29:14;;;;;;;;;;;25.20;89.30;;;;;;4969485;28;19914;-80
2021/03/04 02:31:42;;;;;;;;;;;25.30;87.70;;;;;;4985483;28;19968;-78
2021/03/04 02:34:09;;;;;;;;;;;25.20;88.00;;;;;;4966536;28;19910;-79
2021/03/04 02:36:40;;;;;;;;;;;25.20;88.30;;;;;;4972919;28;20387;-78
2021/03/04 02:39:08;;;;;;;;;;;25.00;85.70;;;;;;4987347;28;19933;-81
2021/03/04 02:41:36;;;;;;;;;;;24.80;86.60;;;;;;4971034;28;19914;-83
2021/03/04 02:44:07;;;;;;;;;;;24.70;86.50;;;;;;4962018;28;19914;-80
2021/03/04 02:46:34;;;;;;;;;;;24.70;87.00;;;;;;4980966;28;19923;-87
2021/03/04 02:49:01;;;;;;;;;;;25.00;87.70;;;;;;4995809;28;19997;-83
2021/03/04 02:51:29;;;;;;;;;;;25.10;86.50;;;;;;4994971;28;19914;-84
2021/03/04 02:53:57;;;;;;;;;;;25.00;85.30;;;;;;4981970;28;20581;-77
2021/03/04 02:56:25;;;;;;;;;;;24.90;84.90;;;;;;4985937;28;19978;-77
2021/03/04 02:58:54;;;;;;;;;;;24.90;81.70;;;;;;4974234;28;19918;-78
2021/03/04 03:01:22;;;;;;;;;;;24.80;81.80;;;;;;4987542;28;19914;-78
2021/03/04 03:03:49;;;;;;;;;;;24.70;80.10;;;;;;4971790;28;19967;-79
2021/03/04 03:06:16;;;;;;;;;;;24.60;84.40;;;;;;4987878;28;19922;-80
2021/03/04 03:08:44;;;;;;;;;;;24.60;82.70;;;;;;4974659;28;20020;-79
2021/03/04 03:11:11;;;;;;;;;;;24.70;81.90;;;;;;4987023;28;19932;-84
2021/03/04 03:13:39;;;;;;;;;;;24.90;81.70;;;;;;4985229;28;20024;-80
2021/03/04 03:16:05;;;;;;;;;;;24.90;82.30;;;;;;4984058;28;19941;-77
2021/03/04 03:18:50;;;;;;;;;;;24.90;82.10;;;;;;4974134;28;19934;-77
2021/03/04 03:21:17;;;;;;;;;;;25.00;80.70;;;;;;4979694;28;19918;-87
2021/03/04 03:23:43;;;;;;;;;;;25.00;80.70;;;;;;4985522;28;19914;-78
2021/03/04 03:26:10;;;;;;;;;;;24.90;78.30;;;;;;4990622;28;19914;-81
2021/03/04 03:28:40;;;;;;;;;;;24.90;79.90;;;;;;4980334;28;19997;-81
2021/03/04 03:31:08;;;;;;;;;;;24.90;78.40;;;;;;4977370;28;19921;-82
2021/03/04 03:33:35;;;;;;;;;;;24.80;79.50;;;;;;4992372;28;19918;-79
2021/03/04 03:36:02;;;;;;;;;;;25.10;79.00;;;;;;4990304;28;20344;-85
2021/03/04 03:38:29;;;;;;;;;;;25.20;77.70;;;;;;4992690;28;20595;-85
2021/03/04 03:40:58;;;;;;;;;;;25.20;78.10;;;;;;4983251;28;20012;-78
2021/03/04 03:43:27;;;;;;;;;;;25.10;78.70;;;;;;4984302;28;19922;-77
2021/03/04 03:45:53;;;;;;;;;;;25.00;80.30;;;;;;4983164;28;19918;-80
2021/03/04 03:48:22;;;;;;;;;;;24.90;83.80;;;;;;4978233;28;19985;-81
2021/03/04 03:50:52;;;;;;;;;;;25.30;91.90;;;;;;4972593;28;20358;-78
2021/03/04 03:53:19;;;;;;;;;;;25.50;90.30;;;;;;4980231;28;19957;-81
2021/03/04 03:55:53;;;;;;;;;;;25.70;83.20;;;;;;4983667;28;19914;-84
2021/03/04 03:58:24;;;;;;;;;;;25.80;84.80;;;;;;4982237;28;19922;-79
2021/03/04 04:00:54;;;;;;;;;;;25.60;89.70;;;;;;4985063;28;19997;-79
2021/03/04 04:03:21;;;;;;;;;;;25.30;92.00;;;;;;4984792;28;19952;-79
2021/03/04 04:05:48;;;;;;;;;;;25.20;93.40;;;;;;5001213;28;20466;-81
2021/03/04 04:08:15;;;;;;;;;;;25.20;94.30;;;;;;4982777;28;19918;-85
2021/03/04 04:10:44;;;;;;;;;;;25.30;95.10;;;;;;4977813;28;20345;-82
2021/03/04 04:13:16;;;;;;;;;;;25.30;94.50;;;;;;4977921;28;19914;-84
2021/03/04 04:15:43;;;;;;;;;;;25.20;95.10;;;;;;4972242;28;19929;-91
2021/03/04 04:18:13;;;;;;;;;;;25.30;95.00;;;;;;4978463;28;19928;-86
2021/03/04 04:20:41;;;;;;;;;;;25.30;94.40;;;;;;4981047;28;19914;-78
2021/03/04 04:23:08;;;;;;;;;;;25.00;95.30;;;;;;4988017;28;19913;-80
2021/03/04 04:25:42;;;;;;;;;;;24.90;96.40;;;;;;4992980;28;19956;-86
2021/03/04 04:28:09;;;;;;;;;;;24.80;96.90;;;;;;4989277;28;19985;-79
2021/03/04 04:30:36;;;;;;;;;;;24.70;96.60;;;;;;4986164;28;19918;-78
2021/03/04 04:33:02;;;;;;;;;;;24.60;96.80;;;;;;4983948;28;20724;-78
2021/03/04 04:35:29;;;;;;;;;;;24.60;97.20;;;;;;4982627;28;20398;-78
2021/03/04 04:37:56;;;;;;;;;;;24.60;97.40;;;;;;4986282;28;19926;-77
2021/03/04 04:40:25;;;;;;;;;;;24.60;97.60;;;;;;4983947;28;19972;-80
2021/03/04 04:42:54;;;;;;;;;;;24.60;97.50;;;;;;4988236;28;20276;-86
2021/03/04 04:45:21;;;;;;;;;;;24.60;97.90;;;;;;4992598;28;20473;-82
2021/03/04 04:47:47;;;;;;;;;;;24.70;98.10;;;;;;4984982;28;19914;-84
2021/03/04 04:50:14;;;;;;;;;;;24.70;98.00;;;;;;4985074;28;19964;-83
2021/03/04 04:52:41;;;;;;;;;;;24.70;98.20;;;;;;4981246;28;19914;-78
2021/03/04 04:55:08;;;;;;;;;;;24.80;98.50;;;;;;4988789;28;19933;-79
2021/03/04 04:57:34;;;;;;;;;;;24.80;98.20;;;;;;4978037;28;19925;-85
2021/03/04 05:00:01;;;;;;;;;;;24.70;98.80;;;;;;4989961;28;19913;-84
2021/03/04 05:02:28;;;;;;;;;;;24.70;97.90;;;;;;4989810;28;19917;-78
2021/03/04 05:04:56;;;;;;;;;;;24.60;98.80;;;;;;4990331;28;19921;-78
2021/03/04 05:07:23;;;;;;;;;;;24.70;98.90;;;;;;4984872;28;19917;-81
2021/03/04 05:09:49;;;;;;;;;;;24.70;98.60;;;;;;4973929;28;19914;-77
2021/03/04 05:12:16;;;;;;;;;;;24.60;99.00;;;;;;4971864;28;19961;-78
2021/03/04 05:14:43;;;;;;;;;;;24.60;99.10;;;;;;4982687;28;19914;-78
2021/03/04 05:17:10;;;;;;;;;;;24.50;99.20;;;;;;4986104;28;20017;-79
2021/03/04 05:19:36;;;;;;;;;;;24.50;99.20;;;;;;4969576;28;19923;-78
2021/03/04 05:22:03;;;;;;;;;;;24.60;99.50;;;;;;4981196;28;19920;-78
2021/03/04 05:24:33;;;;;;;;;;;24.50;99.40;;;;;;4983214;28;20000;-78
2021/03/04 05:27:00;;;;;;;;;;;24.50;99.60;;;;;;4979500;28;19918;-77
2021/03/04 05:29:26;;;;;;;;;;;24.50;99.80;;;;;;4990409;28;19910;-78
2021/03/04 05:31:53;;;;;;;;;;;24.50;99.70;;;;;;4990741;28;19937;-80
2021/03/04 05:34:20;;;;;;;;;;;24.50;99.90;;;;;;4989247;28;19969;-80
2021/03/04 05:36:46;;;;;;;;;;;24.50;99.90;;;;;;4972750;28;20013;-79
2021/03/04 05:39:13;;;;;;;;;;;24.50;99.90;;;;;;4970998;28;19922;-79
2021/03/04 05:41:42;;;;;;;;;;;24.50;99.90;;;;;;4972456;28;19945;-79
2021/03/04 05:44:08;;;;;;;;;;;24.50;99.90;;;;;;4954461;28;19916;-79
2021/03/04 05:46:35;;;;;;;;;;;24.40;99.90;;;;;;4987433;28;19914;-79
2021/03/04 05:49:03;;;;;;;;;;;24.50;99.90;;;;;;4986536;28;20480;-79
2021/03/04 05:51:37;;;;;;;;;;;24.50;99.90;;;;;;4987073;28;20032;-78
2021/03/04 05:54:06;;;;;;;;;;;24.40;99.90;;;;;;4971266;28;19918;-78
2021/03/04 05:56:37;;;;;;;;;;;24.30;99.90;;;;;;4970686;28;19910;-80
2021/03/04 05:59:08;;;;;;;;;;;24.30;99.90;;;;;;4985051;28;19933;-87
2021/03/04 06:01:35;;;;;;;;;;;24.30;99.90;;;;;;4955528;28;19957;-86
2021/03/04 06:04:02;;;;;;;;;;;24.30;99.90;;;;;;4973470;28;19913;-87
2021/03/04 06:06:29;;;;;;;;;;;24.20;99.90;;;;;;4989577;28;19918;-81
2021/03/04 06:08:55;;;;;;;;;;;24.10;99.90;;;;;;4985538;28;19945;-82
2021/03/04 06:11:23;;;;;;;;;;;24.10;99.90;;;;;;4978166;28;20341;-84
2021/03/04 06:13:50;;;;;;;;;;;24.10;99.90;;;;;;4983556;28;19914;-79
2021/03/04 06:16:17;;;;;;;;;;;24.10;99.90;;;;;;4975932;28;20477;-81
2021/03/04 06:18:44;;;;;;;;;;;24.10;99.90;;;;;;4988566;28;19926;-78
2021/03/04 06:21:24;;;;;;;;;;;24.10;99.90;;;;;;4957845;28;20000;-78
2021/03/04 06:23:52;;;;;;;;;;;24.10;99.90;;;;;;4976537;28;19918;-81
2021/03/04 06:26:26;;;;;;;;;;;24.20;99.90;;;;;;4978916;28;20126;-84
2021/03/04 06:28:52;;;;;;;;;;;24.10;99.90;;;;;;4976199;28;20044;-78
2021/03/04 06:31:19;;;;;;;;;;;24.00;99.90;;;;;;4986301;28;20299;-90
2021/03/04 06:33:46;;;;;;;;;;;24.00;99.90;;;;;;4996041;28;20368;-78
2021/03/04 06:36:14;;;;;;;;;;;24.10;99.90;;;;;;5011384;28;19909;-81
2021/03/04 06:38:40;;;;;;;;;;;24.00;99.90;;;;;;4975951;28;19922;-80
2021/03/04 06:41:20;;;;;;;;;;;23.90;99.90;;;;;;4974629;28;19910;-80
2021/03/04 06:43:46;;;;;;;;;;;23.90;99.90;;;;;;4976621;28;20598;-78
2021/03/04 06:46:13;;;;;;;;;;;23.90;99.90;;;;;;4976276;28;19920;-78
2021/03/04 06:48:53;;;;;;;;;;;23.80;99.90;;;;;;4973491;28;19937;-79
2021/03/04 06:51:20;;;;;;;;;;;23.80;99.90;;;;;;4999359;28;20407;-84
2021/03/04 06:53:51;;;;;;;;;;;23.80;99.90;;;;;;5004823;28;19920;-80
2021/03/04 06:56:35;;;;;;;;;;;23.80;99.90;;;;;;4979511;28;19917;-81
2021/03/04 06:59:02;;;;;;;;;;;23.80;99.90;;;;;;4995538;28;19932;-80
2021/03/04 07:01:39;;;;;;;;;;;23.80;99.90;;;;;;4997429;28;19925;-82
2021/03/04 07:04:12;;;;;;;;;;;23.70;99.90;;;;;;4981462;28;20067;-79
2021/03/04 07:06:45;;;;;;;;;;;23.70;99.90;;;;;;5004023;28;19922;-80
2021/03/04 07:09:13;;;;;;;;;;;23.70;99.90;;;;;;4986901;28;20321;-79
2021/03/04 07:11:39;;;;;;;;;;;23.70;99.90;;;;;;5002000;28;20063;-81
2021/03/04 07:14:07;;;;;;;;;;;23.60;99.90;;;;;;4989232;28;19921;-82
2021/03/04 07:16:33;;;;;;;;;;;23.60;99.90;;;;;;4978190;28;19935;-79
2021/03/04 07:19:01;;;;;;;;;;;23.50;99.90;;;;;;4987687;28;19973;-81
2021/03/04 07:21:29;;;;;;;;;;;23.50;99.90;;;;;;4964245;28;19977;-79
2021/03/04 07:23:56;;;;;;;;;;;23.50;99.90;;;;;;4990136;28;19914;-79
2021/03/04 07:26:23;;;;;;;;;;;23.50;99.90;;;;;;4974671;28;19920;-78
2021/03/04 07:28:56;;;;;;;;;;;23.50;99.90;;;;;;4985953;28;19955;-78
2021/03/04 07:31:22;;;;;;;;;;;23.50;99.90;;;;;;5002596;28;19910;-79
2021/03/04 07:33:51;;;;;;;;;;;23.40;99.90;;;;;;5010045;28;19921;-79
2021/03/04 07:36:22;;;;;;;;;;;23.50;99.90;;;;;;4984473;28;19926;-77
2021/03/04 07:39:02;;;;;;;;;;;23.30;99.90;;;;;;4974092;28;19922;-78
2021/03/04 07:41:39;;;;;;;;;;;23.30;99.90;;;;;;4974205;28;20353;-78
2021/03/04 07:44:06;;;;;;;;;;;23.30;99.90;;;;;;4973593;28;19911;-81
2021/03/04 07:46:43;;;;;;;;;;;23.30;99.90;;;;;;4970688;28;19969;-80
2021/03/04 07:49:10;;;;;;;;;;;23.30;99.90;;;;;;4968369;28;19949;-77
2021/03/04 07:51:48;;;;;;;;;;;23.20;99.90;;;;;;4994396;28;19916;-81
2021/03/04 07:54:15;;;;;;;;;;;23.20;99.90;;;;;;4973908;28;19918;-82
2021/03/04 07:56:42;;;;;;;;;;;23.20;99.90;;;;;;4988737;28;20373;-83
2021/03/04 07:59:10;;;;;;;;;;;23.10;99.90;;;;;;4987255;28;20434;-84
2021/03/04 08:01:37;;;;;;;;;;;23.10;99.90;;;;;;4975433;28;19918;-87
2021/03/04 08:04:04;;;;;;;;;;;23.10;99.90;;;;;;4992540;28;19953;-84
2021/03/04 08:06:31;;;;;;;;;;;23.10;99.90;;;;;;4990670;28;20364;-76
2021/03/04 08:08:57;;;;;;;;;;;23.10;99.90;;;;;;4977344;28;19964;-79
2021/03/04 08:11:25;;;;;;;;;;;23.00;99.90;;;;;;4997685;28;19933;-80
2021/03/04 08:13:52;;;;;;;;;;;23.00;99.90;;;;;;4993936;28;19914;-80
2021/03/04 08:16:19;;;;;;;;;;;23.00;99.90;;;;;;4993878;28;20005;-82
2021/03/04 08:18:58;;;;;;;;;;;23.00;99.90;;;;;;4987167;28;19922;-78
2021/03/04 08:21:25;;;;;;;;;;;23.00;99.90;;;;;;4993334;28;19921;-78
2021/03/04 08:23:52;;;;;;;;;;;23.00;99.90;;;;;;4982156;28;20292;-80
2021/03/04 08:26:23;;;;;;;;;;;22.90;99.90;;;;;;4973829;28;20018;-81
2021/03/04 08:28:50;;;;;;;;;;;22.90;99.90;;;;;;4973376;28;19941;-79
2021/03/04 08:31:19;;;;;;;;;;;22.80;99.90;;;;;;4974195;28;20353;-77
2021/03/04 08:33:53;;;;;;;;;;;22.80;99.90;;;;;;4976442;28;19925;-76
2021/03/04 08:36:20;;;;;;;;;;;22.70;99.90;;;;;;4979215;28;20053;-76
2021/03/04 08:38:50;;;;;;;;;;;22.70;99.90;;;;;;5012102;28;20216;-77
2021/03/04 08:41:21;;;;;;;;;;;22.60;99.90;;;;;;5018508;28;19965;-88
2021/03/04 08:43:47;;;;;;;;;;;22.60;99.90;;;;;;4996050;28;20291;-76
2021/03/04 08:46:14;;;;;;;;;;;22.60;99.90;;;;;;4990110;28;19914;-79
2021/03/04 08:48:45;;;;;;;;;;;22.50;99.90;;;;;;4984633;28;19961;-75
2021/03/04 08:51:12;;;;;;;;;;;22.50;99.90;;;;;;4988848;28;19990;-85
2021/03/04 08:53:39;;;;;;;;;;;22.50;99.90;;;;;;4995417;28;19919;-76
2021/03/04 08:56:07;;;;;;;;;;;22.50;99.90;;;;;;4982182;28;20009;-75
2021/03/04 08:58:40;;;;;;;;;;;22.40;99.90;;;;;;4990808;28;19924;-79
2021/03/04 09:01:06;;;;;;;;;;;22.40;99.90;;;;;;4993100;28;19914;-80
2021/03/04 09:03:34;;;;;;;;;;;22.30;99.90;;;;;;4998507;28;20411;-81
2021/03/04 09:06:14;;;;;;;;;;;22.30;99.90;;;;;;4979145;28;19915;-76
2021/03/04 09:08:45;;;;;;;;;;;22.30;99.90;;;;;;4990907;28;20332;-80
2021/03/04 09:11:27;;;;;;;;;;;22.30;99.90;;;;;;4993269;28;20016;-77
2021/03/04 09:14:20;;;;;;;;;;;22.30;99.90;;;;;;4992959;28;19909;-78
2021/03/04 09:16:52;;;;;;;;;;;22.30;99.90;;;;;;4971997;28;19917;-78
2021/03/04 09:19:25;;;;;;;;;;;22.20;99.90;;;;;;4969251;28;19922;-86
2021/03/04 09:21:53;;;;;;;;;;;22.10;99.90;;;;;;4982184;28;20361;-81
2021/03/04 09:24:19;;;;;;;;;;;22.10;99.90;;;;;;4996586;28;19961;-81
2021/03/04 09:26:46;;;;;;;;;;;22.20;99.90;;;;;;5007901;28;19917;-77
2021/03/04 09:29:14;;;;;;;;;;;22.10;99.90;;;;;;4998549;28;19918;-77
2021/03/04 09:31:51;;;;;;;;;;;22.10;99.90;;;;;;4997289;28;19949;-79
2021/03/04 09:34:18;;;;;;;;;;;22.10;99.90;;;;;;4975893;28;21145;-81
2021/03/04 09:36:44;;;;;;;;;;;22.00;99.90;;;;;;4992662;28;19914;-78
2021/03/04 09:39:11;;;;;;;;;;;22.00;99.90;;;;;;4986976;28;19953;-79
2021/03/04 09:41:38;;;;;;;;;;;22.00;99.90;;;;;;4983457;28;19918;-77
2021/03/04 09:44:08;;;;;;;;;;;22.00;99.90;;;;;;4992029;28;19918;-78
2021/03/04 09:46:38;;;;;;;;;;;22.00;99.90;;;;;;4992572;28;19918;-85
2021/03/04 09:49:07;;;;;;;;;;;22.00;99.90;;;;;;4997192;28;19959;-76
2021/03/04 09:51:38;;;;;;;;;;;21.90;99.90;;;;;;4992499;28;19918;-78
2021/03/04 09:54:05;;;;;;;;;;;21.90;99.90;;;;;;4969063;28;20421;-77
2021/03/04 09:56:33;;;;;;;;;;;21.90;99.90;;;;;;4975142;28;20250;-77
2021/03/04 09:59:00;;;;;;;;;;;21.90;99.90;;;;;;4979570;28;19926;-77
2021/03/04 10:01:30;;;;;;;;;;;21.90;99.90;;;;;;4980826;28;19921;-81
2021/03/04 10:04:01;;;;;;;;;;;21.90;99.90;;;;;;4979289;28;20042;-83
2021/03/04 10:06:32;;;;;;;;;;;21.90;99.90;;;;;;4966223;28;20391;-79
2021/03/04 10:09:01;;;;;;;;;;;21.80;99.90;;;;;;4974463;28;20336;-77
2021/03/04 10:11:31;;;;;;;;;;;21.80;99.90;;;;;;4978141;28;20489;-81
2021/03/04 10:14:17;;;;;;;;;;;21.80;99.90;;;;;;4971046;28;19914;-77
2021/03/04 10:16:54;;;;;;;;;;;21.80;99.90;;;;;;4978075;28;19918;-76
2021/03/04 10:19:21;;;;;;;;;;;21.80;99.90;;;;;;4983580;28;20369;-80
2021/03/04 10:21:47;;;;;;;;;;;21.70;99.90;;;;;;4977236;28;20312;-80
2021/03/04 10:24:14;;;;;;;;;;;21.70;99.90;;;;;;4978576;28;19922;-81
2021/03/04 10:26:41;;;;;;;;;;;21.70;99.90;;;;;;4981733;28;20323;-82
2021/03/04 10:29:08;;;;;;;;;;;21.70;99.90;;;;;;4989096;28;19956;-82
2021/03/04 10:31:34;;;;;;;;;;;21.60;99.90;;;;;;4973064;28;19911;-81
2021/03/04 10:34:01;;;;;;;;;;;21.70;99.90;;;;;;4994347;28;19989;-76
2021/03/04 10:36:27;;;;;;;;;;;21.60;99.90;;;;;;5000325;28;19910;-77
2021/03/04 10:38:54;;;;;;;;;;;21.60;99.90;;;;;;4991716;28;19918;-80
2021/03/04 10:41:24;;;;;;;;;;;21.60;99.90;;;;;;4992043;28;19993;-76
2021/03/04 10:43:50;;;;;;;;;;;21.60;99.90;;;;;;4991731;28;19914;-76
2021/03/04 10:46:17;;;;;;;;;;;21.60;99.90;;;;;;4990215;28;20361;-81
2021/03/04 10:48:44;;;;;;;;;;;21.60;99.90;;;;;;4991268;28;20024;-77
2021/03/04 10:51:12;;;;;;;;;;;21.60;99.90;;;;;;4992017;28;19933;-76
2021/03/04 10:53:38;;;;;;;;;;;21.60;99.90;;;;;;4990735;28;19925;-77
2021/03/04 10:56:05;;;;;;;;;;;21.50;99.90;;;;;;4991095;28;19955;-82
2021/03/04 10:58:32;;;;;;;;;;;21.50;99.90;;;;;;4991960;28;19918;-76
2021/03/04 11:00:59;;;;;;;;;;;21.50;99.90;;;;;;4989895;28;19922;-77
2021/03/04 11:03:25;;;;;;;;;;;21.50;99.90;;;;;;4994442;28;19917;-77
2021/03/04 11:05:52;;;;;;;;;;;21.50;99.90;;;;;;4982158;28;20053;-78
2021/03/04 11:08:20;;;;;;;;;;;21.50;99.90;;;;;;4977882;28;19933;-76
2021/03/04 11:10:48;;;;;;;;;;;21.50;99.90;;;;;;4986506;28;20320;-79
2021/03/04 11:13:16;;;;;;;;;;;21.50;99.90;;;;;;4984924;28;20691;-76
2021/03/04 11:15:43;;;;;;;;;;;21.40;99.90;;;;;;4994368;28;19910;-80
2021/03/04 11:18:12;;;;;;;;;;;21.50;99.90;;;;;;4962843;28;20396;-83
2021/03/04 11:20:39;;;;;;;;;;;21.40;99.90;;;;;;4989759;28;19918;-78
2021/03/04 11:23:06;;;;;;;;;;;21.30;99.90;;;;;;4993939;28;19918;-79
2021/03/04 11:25:37;;;;;;;;;;;21.30;99.90;;;;;;4971743;28;20397;-81
2021/03/04 11:28:06;;;;;;;;;;;21.20;99.90;;;;;;4994676;28;19914;-79
2021/03/04 11:30:35;;;;;;;;;;;21.20;99.90;;;;;;4976280;28;20014;-79
2021/03/04 11:33:04;;;;;;;;;;;21.20;99.90;;;;;;4983867;28;20364;-78
2021/03/04 11:35:31;;;;;;;;;;;21.20;99.90;;;;;;4982075;28;19914;-77
2021/03/04 11:37:57;;;;;;;;;;;21.20;99.90;;;;;;5004188;28;19947;-77
2021/03/04 11:40:24;;;;;;;;;;;21.20;99.90;;;;;;4995014;28;19922;-78
2021/03/04 11:42:51;;;;;;;;;;;21.10;99.90;;;;;;4981070;28;19918;-82
2021/03/04 11:45:18;;;;;;;;;;;21.10;99.90;;;;;;4956775;28;19917;-78
2021/03/04 11:47:45;;;;;;;;;;;21.10;99.90;;;;;;4979733;28;20273;-77
2021/03/04 11:50:11;;;;;;;;;;;21.10;99.90;;;;;;4967987;28;20400;-79
2021/03/04 11:52:38;;;;;;;;;;;21.10;99.90;;;;;;4992610;28;19910;-80
2021/03/04 11:55:05;;;;;;;;;;;21.10;99.90;;;;;;4992337;28;19921;-81
2021/03/04 11:57:32;;;;;;;;;;;21.10;99.90;;;;;;4988709;28;19914;-79
2021/03/04 11:59:58;;;;;;;;;;;21.10;99.90;;;;;;4982470;28;19972;-80
2021/03/04 12:02:25;;;;;;;;;;;21.20;99.90;;;;;;4984297;28;19914;-85
2021/03/04 12:04:52;;;;;;;;;;;21.10;99.90;;;;;;4974281;28;20005;-84
2021/03/04 12:07:21;;;;;;;;;;;21.20;99.90;;;;;;4975618;28;19922;-85
2021/03/04 12:09:55;;;;;;;;;;;21.20;99.90;;;;;;4974802;28;19910;-85
2021/03/04 12:12:23;;;;;;;;;;;21.20;99.90;;;;;;4970454;28;19933;-80
2021/03/04 12:14:53;;;;;;;;;;;21.20;99.90;;;;;;4973632;28;20514;-80
2021/03/04 12:17:19;;;;;;;;;;;21.20;99.90;;;;;;4973706;28;19977;-81
2021/03/04 12:19:46;;;;;;;;;;;21.20;99.90;;;;;;4974276;28;20314;-79
2021/03/04 12:22:12;;;;;;;;;;;21.20;99.90;;;;;;4974393;28;19914;-79
2021/03/04 12:24:39;;;;;;;;;;;21.20;99.90;;;;;;4973742;28;19968;-79
2021/03/04 12:27:07;;;;;;;;;;;21.20;99.90;;;;;;4973966;28;19910;-79
2021/03/04 12:29:33;;;;;;;;;;;21.20;99.90;;;;;;4982487;28;19953;-79
2021/03/04 12:32:00;;;;;;;;;;;21.20;99.90;;;;;;4990216;28;19914;-80
2021/03/04 12:34:27;;;;;;;;;;;21.10;99.90;;;;;;4974667;28;19914;-80
2021/03/04 12:36:53;;;;;;;;;;;21.10;99.90;;;;;;4983950;28;19918;-79
2021/03/04 12:39:20;;;;;;;;;;;21.10;99.90;;;;;;4977408;28;20029;-79
2021/03/04 12:41:47;;;;;;;;;;;21.10;99.90;;;;;;4975671;28;20377;-83
2021/03/04 12:44:15;;;;;;;;;;;21.10;99.90;;;;;;4991647;28;19914;-80
2021/03/04 12:46:42;;;;;;;;;;;21.10;99.90;;;;;;4991356;28;19991;-81
2021/03/04 12:49:09;;;;;;;;;;;21.00;99.90;;;;;;4988104;28;19944;-80
2021/03/04 12:51:36;;;;;;;;;;;21.00;99.90;;;;;;4992415;28;19957;-79
2021/03/04 12:54:02;;;;;;;;;;;21.00;99.90;;;;;;4992708;28;19910;-84
2021/03/04 12:56:29;;;;;;;;;;;21.10;99.90;;;;;;4992547;28;19916;-80
2021/03/04 12:58:56;;;;;;;;;;;21.00;99.90;;;;;;4982175;28;19933;-79
2021/03/04 13:01:23;;;;;;;;;;;21.00;99.90;;;;;;4972166;28;19920;-80
2021/03/04 13:03:49;;;;;;;;;;;21.00;99.90;;;;;;4986874;28;19972;-79
2021/03/04 13:06:16;;;;;;;;;;;20.90;99.90;;;;;;4973116;28;19914;-80
2021/03/04 13:08:44;;;;;;;;;;;20.90;99.90;;;;;;4977511;28;20035;-79
2021/03/04 13:11:11;;;;;;;;;;;21.00;99.90;;;;;;4987387;28;19968;-82
2021/03/04 13:13:37;;;;;;;;;;;21.00;99.90;;;;;;4971597;28;20008;-79
2021/03/04 13:16:04;;;;;;;;;;;20.90;99.90;;;;;;4972865;28;19910;-86
2021/03/04 13:18:34;;;;;;;;;;;20.90;99.90;;;;;;4984510;28;19930;-80
2021/03/04 13:21:01;;;;;;;;;;;20.90;99.90;;;;;;4973668;28;19910;-79
2021/03/04 13:23:27;;;;;;;;;;;20.80;99.90;;;;;;4979619;28;19910;-79
2021/03/04 13:25:54;;;;;;;;;;;20.70;99.90;;;;;;4981865;28;19941;-80
2021/03/04 13:28:21;;;;;;;;;;;20.60;99.90;;;;;;4974382;28;19918;-84
2021/03/04 13:30:47;;;;;;;;;;;20.60;99.90;;;;;;4970915;28;19914;-81
2021/03/04 13:33:14;;;;;;;;;;;20.60;99.90;;;;;;4972928;28;19921;-81
2021/03/04 13:35:41;;;;;;;;;;;20.50;99.90;;;;;;4986970;28;19917;-79
2021/03/04 13:38:07;;;;;;;;;;;20.50;99.90;;;;;;4974534;28;19930;-79
2021/03/04 13:40:37;;;;;;;;;;;20.50;99.90;;;;;;4973746;28;19946;-80
2021/03/04 13:43:04;;;;;;;;;;;20.50;99.90;;;;;;4971156;28;19969;-81
2021/03/04 13:45:35;;;;;;;;;;;20.60;99.90;;;;;;4955164;28;20288;-79
2021/03/04 13:48:02;;;;;;;;;;;20.60;99.90;;;;;;4983965;28;20422;-81
2021/03/04 13:50:28;;;;;;;;;;;20.70;99.90;;;;;;4971845;28;20340;-80
2021/03/04 13:52:55;;;;;;;;;;;20.80;99.90;;;;;;4979307;28;19924;-80
2021/03/04 13:55:23;;;;;;;;;;;20.80;99.90;;;;;;4989762;28;19910;-81
2021/03/04 13:57:50;;;;;;;;;;;20.90;99.90;;;;;;4991111;28;19957;-83
2021/03/04 14:00:19;;;;;;;;;;;20.90;99.90;;;;;;4984987;28;19924;-82
2021/03/04 14:02:46;;;;;;;;;;;21.00;99.90;;;;;;4991893;28;19910;-82
2021/03/04 14:05:13;;;;;;;;;;;21.00;99.90;;;;;;4979687;28;19985;-79
2021/03/04 14:07:40;;;;;;;;;;;21.00;99.90;;;;;;4971333;28;19974;-79
2021/03/04 14:10:11;;;;;;;;;;;21.10;99.90;;;;;;4987754;28;19917;-80
2021/03/04 14:12:41;;;;;;;;;;;21.10;99.90;;;;;;4974552;28;20270;-77
2021/03/04 14:15:10;;;;;;;;;;;21.10;99.90;;;;;;4974159;28;19910;-79
2021/03/04 14:17:38;;;;;;;;;;;21.10;99.90;;;;;;4975283;28;19921;-81
2021/03/04 14:20:06;;;;;;;;;;;21.10;99.90;;;;;;4973858;28;19918;-79
2021/03/04 14:22:32;;;;;;;;;;;21.20;99.90;;;;;;4993264;28;19914;-78